WS59 weather

Door County Memorial Hospital Heliport
Sturgeon Bay, Wisconsin, United States

Public forecast

Using degrees Fahrenheit for public forecast. Weather courtesy of forecast.io.

METAR (pilot weather report)

Closest report is Door County Cherryland Airport, 3.0 nm (5.5 km) WNW. Retrieved 2019/09/23 16:14 UTC (38 minutes ago):

KSUE 231614Z AUTO 28012KT 10SM BKN015 17/13 A2992 RMK AO2

TAF (pilot weather forecast)

Closest forecast is Austin Straubel International Airport, 39.2 nm (72.5 km) WSW. Retrieved 2019/09/23 12:36 UTC (4 hours ago):

TAF KGRB 231135Z 2312/2412 28007KT P6SM SCT008 SCT035 TEMPO 2312/2314 BKN008 FM231400 28009G17KT P6SM SCT014 SCT040 TEMPO 2314/2316 BKN014 FM231600 29011G19KT P6SM SCT026 FM231900 29011G16KT P6SM SCT035 FM232200 27006KT P6SM SCT040 FM240200 25003KT P6SM SKC